Latest Weather Observations for Wyndham Airport

IDD60801

Issued at 9:05 pm CST Saturday 1 November 2014 (issued every 30 minutes, with the page automatically refreshed every 10 minutes)

About weather observations | Map of weather stations | Latest weather observations for NT | Other Formats
Station Details ID: 001006 Name: WYNDHAM AERO Lat: -15.51 Lon: 128.15 Height: 3.8 m
Data from the previous 72 hours. | See also: Recent months for locations in Northern Territory
Date/Time
CST
Temp
°C
App
Temp
°C
Dew
Point
Rel
Hum
%
Delta-T
°C
Wind Press
QNH
hPa
Press
MSL
hPa
Rain
since 9 am
mm
Dir
 
Spd
km/h
Gust
km/h
Spd
kts
Gust
kts
01/09:00pm 31.2 33.6 20.8 54 7.0 N 9 13 5 7 1007.7 1007.7 0.0
01/08:30pm 31.8 34.0 20.4 51 7.6 NNW 9 15 5 8 1007.3 1007.3 0.0
01/08:00pm 32.3 34.3 19.9 48 8.2 NNW 9 15 5 8 1006.9 1006.9 0.0
01/07:30pm 32.5 34.6 20.1 48 8.2 S 9 17 5 9 1006.4 1006.4 0.0
01/07:00pm 33.0 31.3 20.5 47 8.3 N 30 43 16 23 1005.7 1005.7 0.0
01/06:30pm 33.9 32.4 21.0 47 8.7 N 30 39 16 21 1005.6 1005.6 0.0
01/06:00pm 35.1 34.0 19.5 40 10.3 N 24 35 13 19 1005.5 1005.5 0.0
01/05:30pm 35.2 32.8 19.1 38 10.6 N 30 39 16 21 1005.5 1005.5 0.0
01/05:00pm 36.4 33.7 18.5 35 11.7 N 30 39 16 21 1005.4 1005.4 0.0
01/04:30pm 37.8 34.4 17.7 30 13.1 NNE 32 44 17 24 1005.1 1005.1 0.0
01/04:00pm 37.9 33.7 15.7 27 14.1 NNE 32 46 17 25 1005.1 1005.1 0.0
01/03:30pm 36.3 30.3 16.5 31 12.7 NNE 43 56 23 30 1005.6 1005.6 0.0
01/03:21pm 36.0 32.0 17.7 34 11.9 N 35 54 19 29 1005.6 1005.6 0.0
01/03:00pm 39.1 36.2 18.9 31 13.4 N 32 39 17 21 1005.5 1005.5 0.0
01/02:30pm 41.6 42.0 16.2 22 16.5 N 9 20 5 11 1005.5 1005.5 0.0
01/02:00pm 40.5 38.9 16.6 24 15.5 E 20 28 11 15 1006.3 1006.3 0.0
01/01:30pm 40.8 40.3 18.7 27 14.7 E 19 26 10 14 1007.0 1007.0 0.0
01/01:00pm 39.7 41.2 18.9 30 13.8 N 9 19 5 10 1007.7 1007.7 0.0
01/12:30pm 39.2 39.7 18.4 29 13.8 E 13 24 7 13 1008.4 1008.4 0.0
01/12:00pm 38.5 39.9 17.8 29 13.5 SE 7 15 4 8 1008.9 1008.9 0.0
01/11:30am 37.8 38.7 19.2 33 12.4 ENE 13 22 7 12 1009.4 1009.4 0.0
01/11:00am 36.7 37.8 19.6 36 11.4 E 13 20 7 11 1009.9 1009.9 0.0
01/10:30am 36.2 37.8 19.2 37 11.3 SSW 9 13 5 7 1010.3 1010.3 0.0
01/10:00am 34.8 36.3 18.8 39 10.5 SSE 9 13 5 7 1010.3 1010.3 0.0
01/09:30am 33.9 37.2 19.9 43 9.3 W 2 9 1 5 1010.2 1010.2 0.0
01/09:00am 32.4 35.8 21.0 51 7.6 WSW 4 9 2 5 1010.3 1010.3 0.0
01/08:30am 31.4 35.5 21.6 56 6.6 SSW 2 9 1 5 1010.3 1010.3 0.0
01/08:00am 30.0 33.7 23.2 67 4.7 ESE 9 13 5 7 1010.1 1010.1 0.0
01/07:30am 29.0 32.0 23.4 72 3.8 E 13 15 7 8 1009.6 1009.6 0.0
01/07:00am 27.8 31.3 23.6 78 2.9 ESE 11 15 6 8 1009.2 1009.2 0.0
01/06:30am 27.2 30.2 23.4 80 2.6 ESE 13 17 7 9 1008.8 1008.8 0.0
01/06:00am 27.2 29.7 23.2 79 2.7 ESE 15 19 8 10 1008.3 1008.3 0.0
01/05:30am 27.2 29.5 23.4 80 2.6 ESE 17 22 9 12 1008.0 1008.0 0.0
01/05:00am 27.2 29.5 23.4 80 2.6 ESE 17 20 9 11 1007.6 1007.6 0.0
01/04:30am 27.1 29.2 23.1 79 2.7 ESE 17 19 9 10 1007.3 1007.3 0.0
01/04:00am 27.3 29.8 23.1 78 2.9 ESE 15 17 8 9 1006.9 1006.9 0.0
01/03:30am 27.2 29.6 23.0 78 2.9 ESE 15 19 8 10 1006.7 1006.7 0.0
01/03:00am 27.5 29.6 23.1 77 3.0 ESE 17 20 9 11 1006.8 1006.8 0.0
01/02:30am 27.7 29.8 23.1 76 3.1 ESE 17 20 9 11 1006.7 1006.7 0.0
01/02:00am 27.8 29.8 23.0 75 3.3 ESE 17 20 9 11 1006.9 1006.9 0.0
01/01:30am 28.2 29.5 22.7 72 3.7 ESE 20 26 11 14 1007.1 1007.1 0.0
01/01:00am 28.6 30.3 22.3 68 4.3 ESE 17 20 9 11 1007.4 1007.4 0.0
01/12:30am 29.2 31.7 21.7 64 5.0 ESE 11 15 6 8 1007.5 1007.5 0.0
01/12:00am 29.7 32.1 22.2 64 5.1 E 13 17 7 9 1007.8 1007.8 0.0
 
Date/Time
CST
Temp
°C
App
Temp
°C
Dew
Point
Rel
Hum
%
Delta-T
°C
Wind Press
QNH
hPa
Press
MSL
hPa
Rain
since 9 am
mm
Dir
 
Spd
km/h
Gust
km/h
Spd
kts
Gust
kts
31/11:30pm 29.6 31.8 21.8 63 5.3 E 13 15 7 8 1008.0 1008.0 0.0
31/11:00pm 30.0 32.9 21.7 61 5.6 ESE 9 13 5 7 1008.3 1008.3 0.0
31/10:30pm 30.3 33.2 21.1 58 6.2 ENE 7 11 4 6 1008.7 1008.7 0.0
31/10:00pm 30.5 33.2 20.7 55 6.5 NE 7 11 4 6 1008.5 1008.5 0.0
31/09:30pm 30.9 33.3 20.8 55 6.7 N 9 13 5 7 1008.1 1008.1 0.0
31/09:00pm 31.5 31.8 20.4 51 7.4 N 19 22 10 12 1007.8 1007.8 0.0
31/08:30pm 31.8 32.4 19.4 47 8.1 E 15 22 8 12 1007.4 1007.4 0.0
31/08:00pm 31.8 33.3 19.8 49 7.9 NE 11 13 6 7 1006.9 1006.9 0.0
31/07:30pm 32.4 29.2 18.2 42 9.2 N 32 43 17 23 1005.8 1005.8 0.0
31/07:00pm 33.4 28.7 15.8 34 11.0 N 35 46 19 25 1005.3 1005.3 0.0
31/06:30pm 34.4 29.3 14.8 30 12.2 N 35 48 19 26 1005.0 1005.0 0.0
31/06:00pm 35.1 30.4 14.4 29 12.8 N 32 46 17 25 1004.7 1004.7 0.0
31/05:30pm 36.4 31.8 15.0 28 13.4 N 33 46 18 25 1004.6 1004.6 0.0
31/05:00pm 36.9 31.4 13.6 24 14.3 N 35 46 19 25 1004.4 1004.4 0.0
31/04:30pm 38.1 33.3 14.6 24 14.7 N 33 44 18 24 1004.7 1004.7 0.0
31/04:00pm 38.3 33.4 15.4 25 14.5 N 35 46 19 25 1004.8 1004.8 0.0
31/03:30pm 39.8 35.5 15.4 23 15.6 N 32 43 17 23 1005.2 1005.2 0.0
31/03:00pm 40.1 35.7 15.7 24 15.6 NNE 33 46 18 25 1005.3 1005.3 0.0
31/02:55pm 39.9 34.4 14.8 22 15.8 NNE 37 46 20 25 1005.3 1005.3 0.0
31/02:30pm 41.4 38.2 15.4 22 16.7 N 26 39 14 21 1005.5 1005.5 0.0
31/02:00pm 41.7 39.2 14.1 19 17.4 NW 20 30 11 16 1005.8 1005.8 0.0
31/01:30pm 41.0 38.9 13.6 20 17.1 N 17 30 9 16 1006.3 1006.3 0.0
31/01:00pm 40.4 38.4 13.8 20 16.6 NW 17 28 9 15 1006.9 1006.9 0.0
31/12:30pm 39.7 39.7 15.3 23 15.5 NNW 9 17 5 9 1007.5 1007.5 0.0
31/12:00pm 39.4 39.8 16.3 25 14.9 NNE 9 13 5 7 1008.1 1008.1 0.0
31/11:30am 38.2 38.3 16.5 28 14.0 NNW 11 15 6 8 1008.6 1008.6 0.0
31/11:00am 37.4 37.3 16.9 30 13.2 N 13 19 7 10 1009.1 1009.1 0.0
31/10:30am 36.8 36.5 17.4 32 12.6 NW 15 24 8 13 1009.4 1009.4 0.0
31/10:00am 35.0 36.9 20.5 42 9.7 NW 11 19 6 10 1009.9 1009.9 0.0
31/09:30am 33.9 37.1 23.0 53 7.5 WNW 11 17 6 9 1010.0 1010.0 0.0
31/09:00am 32.9 36.5 23.0 56 6.8 W 9 15 5 8 1010.1 1010.1 0.0
31/08:30am 31.8 36.5 23.3 60 5.9 ENE 4 7 2 4 1009.9 1009.9 0.0
31/08:00am 30.2 33.9 22.6 63 5.2 E 7 9 4 5 1009.6 1009.6 0.0
31/07:30am 28.6 31.2 21.9 67 4.5 E 11 13 6 7 1009.3 1009.3 0.0
31/07:00am 27.6 29.8 21.9 71 3.8 ESE 13 17 7 9 1008.8 1008.8 0.0
31/06:30am 27.1 29.3 21.8 73 3.6 E 13 15 7 8 1008.3 1008.3 0.0
31/06:00am 27.1 29.3 21.8 73 3.5 E 13 17 7 9 1008.1 1008.1 0.0
31/05:30am 27.2 29.4 21.9 73 3.6 E 13 15 7 8 1007.8 1007.8 0.0
31/05:00am 27.2 29.9 22.2 74 3.4 E 11 13 6 7 1007.4 1007.4 0.0
31/04:30am 27.6 30.3 22.1 72 3.7 E 11 13 6 7 1007.1 1007.1 0.0
31/04:00am 28.0 30.7 22.2 70 3.9 E 11 13 6 7 1006.8 1006.8 0.0
31/03:30am 27.8 30.2 22.3 72 3.7 E 13 15 7 8 1006.7 1006.7 0.0
31/03:00am 28.2 30.2 22.2 70 4.0 E 15 17 8 9 1006.8 1006.8 0.0
31/02:30am 28.8 30.6 21.8 66 4.7 ESE 15 17 8 9 1006.9 1006.9 0.0
31/02:00am 29.1 32.6 21.8 64 4.9 E 6 13 3 7 1006.9 1006.9 0.0
31/01:30am 29.1 31.5 22.3 66 4.6 ESE 13 17 7 9 1007.2 1007.2 0.0
31/01:00am 29.5 31.5 22.2 65 4.9 SE 15 20 8 11 1007.3 1007.3 0.0
31/12:30am 29.8 31.9 22.5 65 5.0 ESE 15 19 8 10 1007.6 1007.6 0.0
31/12:00am 30.5 33.8 21.8 59 5.9 E 7 13 4 7 1007.9 1007.9 0.0
 
Date/Time
CST
Temp
°C
App
Temp
°C
Dew
Point
Rel
Hum
%
Delta-T
°C
Wind Press
QNH
hPa
Press
MSL
hPa
Rain
since 9 am
mm
Dir
 
Spd
km/h
Gust
km/h
Spd
kts
Gust
kts
30/11:30pm 30.5 32.6 21.0 57 6.4 ENE 11 13 6 7 1008.1 1008.1 0.0
30/11:00pm 30.4 33.5 21.5 59 6.0 ESE 7 9 4 5 1008.1 1008.1 0.0
30/10:30pm 31.3 34.5 21.2 55 6.8 ESE 6 11 3 6 1008.2 1008.2 0.0
30/10:00pm 31.6 34.2 21.2 54 7.0 W 9 15 5 8 1007.9 1007.9 0.0
30/09:30pm 31.2 34.9 22.2 58 6.1 WSW 6 13 3 7 1007.5 1007.5 0.0
30/09:00pm 31.4 33.7 22.1 57 6.3 ENE 13 24 7 13 1007.2 1007.2 0.0
30/08:30pm 32.2 31.4 20.8 51 7.6 N 26 41 14 22 1006.4 1006.4 0.0
30/08:00pm 31.9 30.2 21.4 53 7.1 N 32 43 17 23 1006.2 1006.2 0.0
30/07:30pm 33.2 31.3 19.3 44 9.2 N 28 39 15 21 1005.9 1005.9 0.0
30/07:00pm 34.0 31.3 18.5 40 10.1 N 30 43 16 23 1005.5 1005.5 0.0
30/06:30pm 35.1 31.3 17.3 34 11.5 N 33 41 18 22 1005.2 1005.2 0.0
30/06:00pm 35.7 32.6 18.3 35 11.4 N 32 44 17 24 1005.2 1005.2 0.0
30/05:30pm 36.7 32.6 17.3 31 12.6 N 35 44 19 24 1004.9 1004.9 0.0
30/05:00pm 38.0 34.7 17.9 30 13.1 N 32 44 17 24 1004.7 1004.7 0.0
30/04:30pm 39.2 33.6 12.1 20 16.5 N 33 41 18 22 1004.6 1004.6 0.0
30/04:00pm 41.9 37.6 10.9 16 18.7 NNW 24 39 13 21 1004.7 1004.7 0.0
30/03:30pm 42.3 38.5 11.2 16 18.9 N 22 37 12 20 1004.9 1004.9 0.0
30/03:00pm 40.8 37.1 12.6 19 17.3 NNW 24 33 13 18 1005.4 1005.4 0.0
30/02:30pm 41.2 38.3 13.0 19 17.5 NNW 20 33 11 18 1005.6 1005.6 0.0
30/02:00pm 41.2 40.2 14.5 21 16.9 NW 13 24 7 13 1006.0 1006.0 0.0
30/01:30pm 41.3 39.7 13.8 20 17.2 N 15 26 8 14 1006.6 1006.6 0.0
30/01:00pm 39.9 39.6 15.5 24 15.5 NNW 11 20 6 11 1007.3 1007.3 0.0
30/12:30pm 39.8 38.2 16.1 25 15.2 N 19 22 10 12 1007.9 1007.9 0.0
30/12:00pm 38.8 38.8 18.1 29 13.6 NNW 15 22 8 12 1008.3 1008.3 0.0
30/11:30am 37.9 39.8 19.8 35 12.1 WNW 9 17 5 9 1008.9 1008.9 0.0
30/11:00am 36.5 38.2 19.4 36 11.4 ENE 9 19 5 10 1009.5 1009.5 0.0
30/10:30am 35.3 36.9 19.2 38 10.6 ENE 9 15 5 8 1010.1 1010.1 0.0
30/10:00am 34.9 37.0 20.1 42 9.9 N 9 17 5 9 1010.5 1010.5 0.0
30/09:30am 33.8 34.7 20.9 46 8.7 N 17 24 9 13 1010.7 1010.7 0.0
30/09:00am 32.6 33.6 21.8 53 7.3 N 19 30 10 16 1010.6 1010.6 0.0
30/08:30am 32.2 33.0 21.4 53 7.3 NNE 19 24 10 13 1010.4 1010.4 0.0
30/08:00am 31.3 33.3 19.9 50 7.5 ESE 9 15 5 8 1010.2 1010.2 0.0
30/07:30am 30.4 32.9 20.3 54 6.7 E 7 13 4 7 1009.6 1009.6 0.0
30/07:00am 28.3 29.3 19.5 59 5.7 ESE 13 15 7 8 1009.2 1009.2 0.0
30/06:30am 27.2 28.2 17.7 56 6.0 E 9 15 5 8 1008.8 1008.8 0.0
30/06:00am 28.9 30.4 18.9 54 6.5 N 9 11 5 6 1008.2 1008.2 0.0
30/05:30am 29.0 30.2 19.0 54 6.5 NNW 11 13 6 7 1007.9 1007.9 0.0
30/05:00am 27.7 28.7 17.8 54 6.3 NW 9 11 5 6 1007.7 1007.7 0.0
30/04:30am 28.2 31.1 18.3 55 6.3 CALM 0 0 0 0 1007.5 1007.5 0.0
30/04:00am 28.7 31.6 19.1 56 6.2 WSW 2 6 1 3 1007.5 1007.5 0.0
30/03:30am 28.5 29.9 18.6 55 6.4 WSW 9 9 5 5 1007.5 1007.5 0.0
30/03:00am 29.1 29.8 18.8 53 6.6 NW 13 13 7 7 1007.5 1007.5 0.0
30/02:30am 28.2 29.4 18.3 55 6.3 WNW 9 9 5 5 1007.7 1007.7 0.0
30/02:00am 28.4 29.9 17.6 52 6.8 W 6 7 3 4 1008.0 1008.0 0.0
30/01:30am 28.7 31.2 18.2 53 6.7 W 2 6 1 3 1008.4 1008.4 0.0
30/01:00am 28.4 31.2 17.9 53 6.7 CALM 0 0 0 0 1008.6 1008.6 0.0
30/12:30am 28.1 30.7 17.6 53 6.6 CALM 0 0 0 0 1008.8 1008.8 0.0
30/12:00am 28.4 30.5 17.3 51 7.0 ENE 2 6 1 3 1009.0 1009.0 0.0
 
Date/Time
CST
Temp
°C
App
Temp
°C
Dew
Point
Rel
Hum
%
Delta-T
°C
Wind Press
QNH
hPa
Press
MSL
hPa
Rain
since 9 am
mm
Dir
 
Spd
km/h
Gust
km/h
Spd
kts
Gust
kts
29/11:30pm 29.1 30.9 17.3 49 7.5 S 4 7 2 4 1009.4 1009.4 0.0
29/11:00pm 30.3 32.4 16.3 42 8.7 CALM 0 0 0 0 1009.6 1009.6 0.0

Other Formats:

Comma delimited format used in spreadsheet applications
http://www.bom.gov.au/fwo/IDD60801/IDD60801.95214.axf

JavaScript Object Notation format (JSON) in row-major order
http://www.bom.gov.au/fwo/IDD60801/IDD60801.95214.json